sensor_id;sensor_type;location;lat;lon;timestamp;pressure;altitude;pressure_sealevel;temperature;humidity
7888;BME280;3989;48.810;9.208;2022-08-25T00:00:40;98770.56;;;18.78;100.00
7888;BME280;3989;48.810;9.208;2022-08-25T00:03:07;98859.34;;;19.34;100.00
7888;BME280;3989;48.810;9.208;2022-08-25T00:05:33;98865.47;;;19.30;100.00
7888;BME280;3989;48.810;9.208;2022-08-25T00:08:00;98841.78;;;19.14;100.00
7888;BME280;3989;48.810;9.208;2022-08-25T00:10:30;98856.41;;;19.24;100.00
7888;BME280;3989;48.810;9.208;2022-08-25T00:13:01;98823.31;;;18.99;100.00
7888;BME280;3989;48.810;9.208;2022-08-25T00:15:28;98848.94;;;19.08;100.00
7888;BME280;3989;48.810;9.208;2022-08-25T00:17:56;98852.59;;;19.14;100.00
7888;BME280;3989;48.810;9.208;2022-08-25T00:20:23;98857.19;;;19.13;100.00
7888;BME280;3989;48.810;9.208;2022-08-25T00:22:50;98850.16;;;19.12;100.00
7888;BME280;3989;48.810;9.208;2022-08-25T00:25:17;98846.59;;;19.12;100.00
7888;BME280;3989;48.810;9.208;2022-08-25T00:27:44;98851.19;;;19.11;100.00
7888;BME280;3989;48.810;9.208;2022-08-25T00:30:13;98843.06;;;19.00;100.00
7888;BME280;3989;48.810;9.208;2022-08-25T00:32:41;98853.03;;;18.99;100.00
7888;BME280;3989;48.810;9.208;2022-08-25T00:35:07;98825.78;;;18.71;100.00
7888;BME280;3989;48.810;9.208;2022-08-25T00:37:34;98843.47;;;18.85;100.00
7888;BME280;3989;48.810;9.208;2022-08-25T00:40:03;98854.06;;;18.86;100.00
7888;BME280;3989;48.810;9.208;2022-08-25T00:42:30;98777.81;;;18.36;100.00
7888;BME280;3989;48.810;9.208;2022-08-25T00:44:56;98857.00;;;18.85;100.00
7888;BME280;3989;48.810;9.208;2022-08-25T00:47:24;98853.69;;;18.83;100.00
7888;BME280;3989;48.810;9.208;2022-08-25T00:49:54;98855.22;;;18.79;100.00
7888;BME280;3989;48.810;9.208;2022-08-25T00:52:23;98864.81;;;18.75;100.00
7888;BME280;3989;48.810;9.208;2022-08-25T00:54:52;98854.84;;;18.75;100.00
7888;BME280;3989;48.810;9.208;2022-08-25T00:57:23;98854.25;;;18.73;100.00
7888;BME280;3989;48.810;9.208;2022-08-25T00:59:50;98840.53;;;18.57;100.00
7888;BME280;3989;48.810;9.208;2022-08-25T01:02:17;98794.69;;;18.32;100.00
7888;BME280;3989;48.810;9.208;2022-08-25T01:04:45;98850.66;;;18.61;100.00
7888;BME280;3989;48.810;9.208;2022-08-25T01:07:14;98846.06;;;18.62;100.00
7888;BME280;3989;48.810;9.208;2022-08-25T01:09:41;98844.44;;;18.61;100.00
7888;BME280;3989;48.810;9.208;2022-08-25T01:12:09;98730.03;;;17.89;100.00
7888;BME280;3989;48.810;9.208;2022-08-25T01:14:36;98844.06;;;18.57;100.00
7888;BME280;3989;48.810;9.208;2022-08-25T01:17:03;98838.69;;;18.57;100.00
7888;BME280;3989;48.810;9.208;2022-08-25T01:19:31;98844.91;;;18.58;100.00
7888;BME280;3989;48.810;9.208;2022-08-25T01:21:59;98828.69;;;18.58;100.00
7888;BME280;3989;48.810;9.208;2022-08-25T01:24:30;98813.06;;;18.42;100.00
7888;BME280;3989;48.810;9.208;2022-08-25T01:27:00;98834.53;;;18.55;100.00
7888;BME280;3989;48.810;9.208;2022-08-25T01:29:28;98845.34;;;18.55;100.00
7888;BME280;3989;48.810;9.208;2022-08-25T01:31:57;98851.00;;;18.53;100.00
7888;BME280;3989;48.810;9.208;2022-08-25T01:34:26;98843.91;;;18.52;100.00
7888;BME280;3989;48.810;9.208;2022-08-25T01:36:53;98850.41;;;18.51;100.00
7888;BME280;3989;48.810;9.208;2022-08-25T01:39:22;98818.78;;;18.33;100.00
7888;BME280;3989;48.810;9.208;2022-08-25T01:41:58;98794.50;;;18.15;100.00
7888;BME280;3989;48.810;9.208;2022-08-25T01:44:29;98789.19;;;18.09;100.00
7888;BME280;3989;48.810;9.208;2022-08-25T01:46:56;98838.44;;;18.41;100.00
7888;BME280;3989;48.810;9.208;2022-08-25T01:49:23;98795.75;;;18.13;100.00
7888;BME280;3989;48.810;9.208;2022-08-25T01:51:52;98839.03;;;18.43;100.00
7888;BME280;3989;48.810;9.208;2022-08-25T01:54:22;98833.63;;;18.43;100.00
7888;BME280;3989;48.810;9.208;2022-08-25T01:56:49;98836.66;;;18.34;100.00
7888;BME280;3989;48.810;9.208;2022-08-25T01:59:16;98842.19;;;18.40;100.00
7888;BME280;3989;48.810;9.208;2022-08-25T02:01:43;98845.13;;;18.38;100.00
7888;BME280;3989;48.810;9.208;2022-08-25T02:04:09;98836.03;;;18.32;100.00
7888;BME280;3989;48.810;9.208;2022-08-25T02:06:37;98841.13;;;18.41;100.00
7888;BME280;3989;48.810;9.208;2022-08-25T02:09:07;98840.09;;;18.42;100.00
7888;BME280;3989;48.810;9.208;2022-08-25T02:11:37;98843.22;;;18.38;100.00
7888;BME280;3989;48.810;9.208;2022-08-25T02:14:07;98795.41;;;18.09;100.00
7888;BME280;3989;48.810;9.208;2022-08-25T02:16:37;98744.72;;;17.75;100.00
7888;BME280;3989;48.810;9.208;2022-08-25T02:19:06;98848.50;;;18.33;100.00
7888;BME280;3989;48.810;9.208;2022-08-25T02:21:34;98794.28;;;17.99;100.00
7888;BME280;3989;48.810;9.208;2022-08-25T02:24:02;98848.13;;;18.30;100.00
7888;BME280;3989;48.810;9.208;2022-08-25T02:26:29;98846.41;;;18.17;100.00
7888;BME280;3989;48.810;9.208;2022-08-25T02:28:57;98824.66;;;18.12;100.00
7888;BME280;3989;48.810;9.208;2022-08-25T02:31:24;98817.81;;;18.10;100.00
7888;BME280;3989;48.810;9.208;2022-08-25T02:33:52;98828.47;;;18.23;100.00
7888;BME280;3989;48.810;9.208;2022-08-25T02:36:20;98842.06;;;18.34;100.00
7888;BME280;3989;48.810;9.208;2022-08-25T02:38:47;98841.31;;;18.27;100.00
7888;BME280;3989;48.810;9.208;2022-08-25T02:41:17;98841.44;;;18.32;100.00
7888;BME280;3989;48.810;9.208;2022-08-25T02:43:45;98836.50;;;18.29;100.00
7888;BME280;3989;48.810;9.208;2022-08-25T02:46:16;98843.41;;;18.25;100.00
7888;BME280;3989;48.810;9.208;2022-08-25T02:48:44;98840.47;;;18.27;100.00
7888;BME280;3989;48.810;9.208;2022-08-25T02:51:11;98801.69;;;18.03;100.00
7888;BME280;3989;48.810;9.208;2022-08-25T02:53:39;98836.28;;;18.31;100.00
7888;BME280;3989;48.810;9.208;2022-08-25T02:56:08;98837.31;;;18.30;100.00
7888;BME280;3989;48.810;9.208;2022-08-25T02:58:36;98836.34;;;18.24;100.00
7888;BME280;3989;48.810;9.208;2022-08-25T03:01:03;98838.03;;;18.25;100.00
7888;BME280;3989;48.810;9.208;2022-08-25T03:03:32;98831.25;;;18.16;100.00
7888;BME280;3989;48.810;9.208;2022-08-25T03:05:59;98837.41;;;18.05;100.00
7888;BME280;3989;48.810;9.208;2022-08-25T03:08:26;98829.84;;;17.96;100.00
7888;BME280;3989;48.810;9.208;2022-08-25T03:10:52;98833.91;;;17.87;100.00
7888;BME280;3989;48.810;9.208;2022-08-25T03:13:19;98820.59;;;17.67;100.00
7888;BME280;3989;48.810;9.208;2022-08-25T03:15:45;98828.47;;;17.68;100.00
7888;BME280;3989;48.810;9.208;2022-08-25T03:18:12;98827.47;;;17.63;100.00
7888;BME280;3989;48.810;9.208;2022-08-25T03:20:41;98815.75;;;17.51;100.00
7888;BME280;3989;48.810;9.208;2022-08-25T03:23:07;98835.81;;;17.55;100.00
7888;BME280;3989;48.810;9.208;2022-08-25T03:25:34;98832.16;;;17.49;100.00
7888;BME280;3989;48.810;9.208;2022-08-25T03:28:18;98839.25;;;17.44;100.00
7888;BME280;3989;48.810;9.208;2022-08-25T03:30:45;98836.56;;;17.44;100.00
7888;BME280;3989;48.810;9.208;2022-08-25T03:33:13;98826.31;;;17.27;100.00
7888;BME280;3989;48.810;9.208;2022-08-25T03:35:41;98830.84;;;17.33;100.00
7888;BME280;3989;48.810;9.208;2022-08-25T03:38:07;98835.19;;;17.35;100.00
7888;BME280;3989;48.810;9.208;2022-08-25T03:40:34;98836.88;;;17.29;100.00
7888;BME280;3989;48.810;9.208;2022-08-25T03:43:01;98838.78;;;17.28;100.00
7888;BME280;3989;48.810;9.208;2022-08-25T03:45:27;98835.69;;;17.25;100.00
7888;BME280;3989;48.810;9.208;2022-08-25T03:47:54;98831.97;;;17.19;100.00
7888;BME280;3989;48.810;9.208;2022-08-25T03:50:22;98833.69;;;17.14;100.00
7888;BME280;3989;48.810;9.208;2022-08-25T03:52:55;98832.47;;;17.10;100.00
7888;BME280;3989;48.810;9.208;2022-08-25T03:55:23;98812.50;;;16.93;100.00
7888;BME280;3989;48.810;9.208;2022-08-25T03:57:50;98823.59;;;17.03;100.00
7888;BME280;3989;48.810;9.208;2022-08-25T04:00:18;98829.63;;;17.05;100.00
7888;BME280;3989;48.810;9.208;2022-08-25T04:02:45;98822.19;;;17.00;100.00
7888;BME280;3989;48.810;9.208;2022-08-25T04:05:12;98825.75;;;16.94;100.00
7888;BME280;3989;48.810;9.208;2022-08-25T04:07:39;98817.91;;;16.93;100.00
7888;BME280;3989;48.810;9.208;2022-08-25T04:10:09;98820.78;;;16.91;100.00
7888;BME280;3989;48.810;9.208;2022-08-25T04:12:37;98825.16;;;16.92;100.00
7888;BME280;3989;48.810;9.208;2022-08-25T04:15:05;98784.84;;;16.72;100.00
7888;BME280;3989;48.810;9.208;2022-08-25T04:17:35;98794.13;;;16.83;100.00
7888;BME280;3989;48.810;9.208;2022-08-25T04:20:03;98820.97;;;16.96;100.00
7888;BME280;3989;48.810;9.208;2022-08-25T04:22:30;98818.09;;;16.91;100.00
7888;BME280;3989;48.810;9.208;2022-08-25T04:24:57;98815.69;;;16.83;100.00
7888;BME280;3989;48.810;9.208;2022-08-25T04:27:25;98829.88;;;16.97;100.00
7888;BME280;3989;48.810;9.208;2022-08-25T04:29:52;98836.03;;;17.04;100.00
7888;BME280;3989;48.810;9.208;2022-08-25T04:32:18;98830.88;;;17.02;100.00
7888;BME280;3989;48.810;9.208;2022-08-25T04:34:45;98826.91;;;17.05;100.00
7888;BME280;3989;48.810;9.208;2022-08-25T04:37:13;98827.13;;;17.03;100.00
7888;BME280;3989;48.810;9.208;2022-08-25T04:39:40;98817.03;;;16.99;100.00
7888;BME280;3989;48.810;9.208;2022-08-25T04:42:07;98816.41;;;16.97;100.00
7888;BME280;3989;48.810;9.208;2022-08-25T04:44:35;98828.19;;;17.02;100.00
7888;BME280;3989;48.810;9.208;2022-08-25T04:47:02;98770.75;;;16.70;100.00
7888;BME280;3989;48.810;9.208;2022-08-25T04:49:29;98828.59;;;17.06;100.00
7888;BME280;3989;48.810;9.208;2022-08-25T04:51:56;98803.16;;;16.95;100.00
7888;BME280;3989;48.810;9.208;2022-08-25T04:54:23;98798.41;;;16.91;100.00
7888;BME280;3989;48.810;9.208;2022-08-25T04:56:52;98803.75;;;16.97;100.00
7888;BME280;3989;48.810;9.208;2022-08-25T04:59:19;98806.38;;;17.04;100.00
7888;BME280;3989;48.810;9.208;2022-08-25T05:01:47;98835.91;;;17.23;100.00
7888;BME280;3989;48.810;9.208;2022-08-25T05:04:15;98838.69;;;17.35;100.00
7888;BME280;3989;48.810;9.208;2022-08-25T05:06:45;98824.09;;;17.43;100.00
7888;BME280;3989;48.810;9.208;2022-08-25T05:09:11;98838.94;;;17.58;100.00
7888;BME280;3989;48.810;9.208;2022-08-25T05:11:38;98836.56;;;17.68;100.00
7888;BME280;3989;48.810;9.208;2022-08-25T05:14:05;98817.53;;;17.63;100.00
7888;BME280;3989;48.810;9.208;2022-08-25T05:16:35;98809.03;;;17.60;100.00
7888;BME280;3989;48.810;9.208;2022-08-25T05:19:03;98788.88;;;17.62;100.00
7888;BME280;3989;48.810;9.208;2022-08-25T05:21:30;98798.25;;;17.78;100.00
7888;BME280;3989;48.810;9.208;2022-08-25T05:23:58;98820.97;;;18.07;100.00
7888;BME280;3989;48.810;9.208;2022-08-25T05:26:27;98770.91;;;17.93;100.00
7888;BME280;3989;48.810;9.208;2022-08-25T05:28:56;98818.66;;;18.28;100.00
7888;BME280;3989;48.810;9.208;2022-08-25T05:31:23;98804.69;;;18.31;100.00
7888;BME280;3989;48.810;9.208;2022-08-25T05:33:51;98800.38;;;18.42;100.00
7888;BME280;3989;48.810;9.208;2022-08-25T05:36:20;98807.88;;;18.58;100.00
7888;BME280;3989;48.810;9.208;2022-08-25T05:38:48;98816.78;;;18.77;100.00
7888;BME280;3989;48.810;9.208;2022-08-25T05:41:16;98822.41;;;18.87;100.00
7888;BME280;3989;48.810;9.208;2022-08-25T05:43:45;98821.53;;;18.93;100.00
7888;BME280;3989;48.810;9.208;2022-08-25T05:46:12;98818.34;;;18.96;100.00
7888;BME280;3989;48.810;9.208;2022-08-25T05:48:39;98814.72;;;19.02;100.00
7888;BME280;3989;48.810;9.208;2022-08-25T05:51:07;98814.97;;;19.12;100.00
7888;BME280;3989;48.810;9.208;2022-08-25T05:53:38;98812.75;;;19.21;100.00
7888;BME280;3989;48.810;9.208;2022-08-25T05:56:06;98796.72;;;19.19;100.00
7888;BME280;3989;48.810;9.208;2022-08-25T05:58:33;98804.75;;;19.26;100.00
7888;BME280;3989;48.810;9.208;2022-08-25T06:01:03;98809.09;;;19.27;100.00
7888;BME280;3989;48.810;9.208;2022-08-25T06:03:43;98758.84;;;18.96;100.00
7888;BME280;3989;48.810;9.208;2022-08-25T06:06:11;98756.16;;;18.96;100.00
7888;BME280;3989;48.810;9.208;2022-08-25T06:08:39;98747.78;;;18.86;100.00
7888;BME280;3989;48.810;9.208;2022-08-25T06:11:06;98807.69;;;19.24;100.00
7888;BME280;3989;48.810;9.208;2022-08-25T06:13:32;98786.28;;;19.23;100.00
7888;BME280;3989;48.810;9.208;2022-08-25T06:15:59;98812.63;;;19.39;100.00
7888;BME280;3989;48.810;9.208;2022-08-25T06:18:26;98810.19;;;19.49;100.00
7888;BME280;3989;48.810;9.208;2022-08-25T06:20:52;98816.00;;;19.64;100.00
7888;BME280;3989;48.810;9.208;2022-08-25T06:23:19;98808.69;;;19.76;100.00
7888;BME280;3989;48.810;9.208;2022-08-25T06:25:49;98812.06;;;19.95;100.00
7888;BME280;3989;48.810;9.208;2022-08-25T06:28:16;98813.69;;;20.08;100.00
7888;BME280;3989;48.810;9.208;2022-08-25T06:30:43;98823.44;;;20.20;100.00
7888;BME280;3989;48.810;9.208;2022-08-25T06:33:10;98813.09;;;20.29;100.00
7888;BME280;3989;48.810;9.208;2022-08-25T06:35:40;98813.38;;;20.44;100.00
7888;BME280;3989;48.810;9.208;2022-08-25T06:38:07;98808.72;;;20.56;100.00
7888;BME280;3989;48.810;9.208;2022-08-25T06:40:34;98809.16;;;20.65;100.00
7888;BME280;3989;48.810;9.208;2022-08-25T06:43:02;98805.09;;;20.79;100.00
7888;BME280;3989;48.810;9.208;2022-08-25T06:45:31;98778.94;;;20.73;100.00
7888;BME280;3989;48.810;9.208;2022-08-25T06:47:58;98814.94;;;21.13;100.00
7888;BME280;3989;48.810;9.208;2022-08-25T06:50:25;98797.53;;;21.26;100.00
7888;BME280;3989;48.810;9.208;2022-08-25T06:52:51;98806.28;;;21.50;100.00
7888;BME280;3989;48.810;9.208;2022-08-25T06:55:18;98793.06;;;21.53;100.00
7888;BME280;3989;48.810;9.208;2022-08-25T06:57:45;98809.72;;;21.78;100.00
7888;BME280;3989;48.810;9.208;2022-08-25T07:00:13;98789.88;;;21.78;100.00
7888;BME280;3989;48.810;9.208;2022-08-25T07:02:41;98786.19;;;21.84;100.00
7888;BME280;3989;48.810;9.208;2022-08-25T07:05:08;98790.00;;;22.05;100.00
7888;BME280;3989;48.810;9.208;2022-08-25T07:07:36;98794.03;;;22.24;100.00
7888;BME280;3989;48.810;9.208;2022-08-25T07:10:03;98760.53;;;22.18;100.00
7888;BME280;3989;48.810;9.208;2022-08-25T07:12:30;98780.50;;;22.50;100.00
7888;BME280;3989;48.810;9.208;2022-08-25T07:14:56;98797.63;;;22.73;100.00
7888;BME280;3989;48.810;9.208;2022-08-25T07:17:24;98785.25;;;22.87;100.00
7888;BME280;3989;48.810;9.208;2022-08-25T07:19:51;98777.13;;;22.92;100.00
7888;BME280;3989;48.810;9.208;2022-08-25T07:22:17;98794.09;;;23.04;100.00
7888;BME280;3989;48.810;9.208;2022-08-25T07:24:44;98780.56;;;23.09;100.00
7888;BME280;3989;48.810;9.208;2022-08-25T07:27:11;98785.81;;;23.21;100.00
7888;BME280;3989;48.810;9.208;2022-08-25T07:29:37;98791.88;;;23.33;100.00
7888;BME280;3989;48.810;9.208;2022-08-25T07:32:04;98787.94;;;23.45;100.00
7888;BME280;3989;48.810;9.208;2022-08-25T07:34:32;98766.72;;;23.52;100.00
7888;BME280;3989;48.810;9.208;2022-08-25T07:37:17;98773.38;;;23.72;100.00
7888;BME280;3989;48.810;9.208;2022-08-25T07:39:44;98768.53;;;23.79;100.00
7888;BME280;3989;48.810;9.208;2022-08-25T07:42:11;98769.94;;;23.91;100.00
7888;BME280;3989;48.810;9.208;2022-08-25T07:44:38;98779.84;;;24.02;100.00
7888;BME280;3989;48.810;9.208;2022-08-25T07:47:05;98771.13;;;24.11;100.00
7888;BME280;3989;48.810;9.208;2022-08-25T07:49:33;98778.06;;;24.33;97.69
7888;BME280;3989;48.810;9.208;2022-08-25T07:51:59;98783.56;;;24.43;96.63
7888;BME280;3989;48.810;9.208;2022-08-25T07:54:26;98773.75;;;24.52;93.53
7888;BME280;3989;48.810;9.208;2022-08-25T07:56:52;98782.25;;;24.61;90.85
7888;BME280;3989;48.810;9.208;2022-08-25T07:59:19;98779.53;;;24.66;92.23
7888;BME280;3989;48.810;9.208;2022-08-25T08:01:46;98779.28;;;24.78;91.02
7888;BME280;3989;48.810;9.208;2022-08-25T08:04:13;98769.75;;;24.85;86.87
7888;BME280;3989;48.810;9.208;2022-08-25T08:06:41;98766.78;;;24.87;88.04
7888;BME280;3989;48.810;9.208;2022-08-25T08:09:07;98771.94;;;24.88;86.51
7888;BME280;3989;48.810;9.208;2022-08-25T08:11:35;98767.88;;;24.91;87.43
7888;BME280;3989;48.810;9.208;2022-08-25T08:14:05;98765.41;;;24.99;85.83
7888;BME280;3989;48.810;9.208;2022-08-25T08:16:33;98777.16;;;25.05;86.84
7888;BME280;3989;48.810;9.208;2022-08-25T08:19:00;98755.03;;;25.01;83.72
7888;BME280;3989;48.810;9.208;2022-08-25T08:21:29;98764.31;;;25.05;84.86
7888;BME280;3989;48.810;9.208;2022-08-25T08:23:59;98759.69;;;25.26;84.27
7888;BME280;3989;48.810;9.208;2022-08-25T08:26:26;98771.94;;;25.44;82.66
7888;BME280;3989;48.810;9.208;2022-08-25T08:28:53;98759.94;;;25.50;80.46
7888;BME280;3989;48.810;9.208;2022-08-25T08:31:22;98758.81;;;25.66;79.80
7888;BME280;3989;48.810;9.208;2022-08-25T08:33:51;98770.28;;;25.78;77.97
7888;BME280;3989;48.810;9.208;2022-08-25T08:36:18;98763.38;;;25.96;77.61
7888;BME280;3989;48.810;9.208;2022-08-25T08:38:45;98759.78;;;26.05;74.54
7888;BME280;3989;48.810;9.208;2022-08-25T08:41:51;98761.94;;;26.24;72.24
7888;BME280;3989;48.810;9.208;2022-08-25T08:44:44;98758.09;;;26.30;71.03
7888;BME280;3989;48.810;9.208;2022-08-25T08:47:23;98753.66;;;26.34;71.26
7888;BME280;3989;48.810;9.208;2022-08-25T08:50:01;98749.66;;;26.16;69.22
7888;BME280;3989;48.810;9.208;2022-08-25T08:52:36;98753.97;;;26.27;68.64
7888;BME280;3989;48.810;9.208;2022-08-25T08:55:09;98749.66;;;26.16;68.02
7888;BME280;3989;48.810;9.208;2022-08-25T08:57:43;98751.84;;;26.09;70.77
7888;BME280;3989;48.810;9.208;2022-08-25T09:00:11;98741.47;;;26.16;69.87
7888;BME280;3989;48.810;9.208;2022-08-25T09:02:45;98755.00;;;26.41;68.83
7888;BME280;3989;48.810;9.208;2022-08-25T09:05:16;98711.97;;;26.03;68.51
7888;BME280;3989;48.810;9.208;2022-08-25T09:07:47;98708.66;;;26.16;68.56
7888;BME280;3989;48.810;9.208;2022-08-25T09:10:16;98641.81;;;25.78;67.81
7888;BME280;3989;48.810;9.208;2022-08-25T09:12:48;98753.88;;;26.52;65.94
7888;BME280;3989;48.810;9.208;2022-08-25T09:15:25;98747.53;;;26.57;64.78
7888;BME280;3989;48.810;9.208;2022-08-25T09:18:18;98602.78;;;25.68;65.40
7888;BME280;3989;48.810;9.208;2022-08-25T09:21:01;98669.75;;;26.14;65.99
7888;BME280;3989;48.810;9.208;2022-08-25T09:23:37;98619.34;;;25.86;64.28
7888;BME280;3989;48.810;9.208;2022-08-25T09:26:19;98743.09;;;26.66;63.63
7888;BME280;3989;48.810;9.208;2022-08-25T09:28:53;98733.81;;;26.62;63.19
7888;BME280;3989;48.810;9.208;2022-08-25T09:31:30;98711.13;;;26.56;62.30
7888;BME280;3989;48.810;9.208;2022-08-25T09:34:00;98616.56;;;25.91;62.19
7888;BME280;3989;48.810;9.208;2022-08-25T09:36:28;98678.19;;;26.28;63.36
7888;BME280;3989;48.810;9.208;2022-08-25T09:38:54;98722.00;;;26.72;63.59
7888;BME280;3989;48.810;9.208;2022-08-25T09:41:35;98692.91;;;26.76;61.30
7888;BME280;3989;48.810;9.208;2022-08-25T09:44:15;98694.22;;;26.88;59.48
7888;BME280;3989;48.810;9.208;2022-08-25T09:46:54;98726.66;;;27.34;58.43
7888;BME280;3989;48.810;9.208;2022-08-25T09:49:30;98717.78;;;27.52;56.98
7888;BME280;3989;48.810;9.208;2022-08-25T09:52:16;98723.53;;;27.50;56.13
7888;BME280;3989;48.810;9.208;2022-08-25T09:54:44;98714.69;;;27.30;57.58
7888;BME280;3989;48.810;9.208;2022-08-25T09:57:26;98697.41;;;27.00;57.89
7888;BME280;3989;48.810;9.208;2022-08-25T09:59:55;98609.25;;;26.31;60.21
7888;BME280;3989;48.810;9.208;2022-08-25T10:02:23;98711.94;;;27.01;59.09
7888;BME280;3989;48.810;9.208;2022-08-25T10:04:51;98658.78;;;26.63;59.13
7888;BME280;3989;48.810;9.208;2022-08-25T10:07:22;98670.13;;;26.51;59.75
7888;BME280;3989;48.810;9.208;2022-08-25T10:09:53;98693.09;;;26.94;59.85
7888;BME280;3989;48.810;9.208;2022-08-25T10:12:24;98709.06;;;27.11;58.22
7888;BME280;3989;48.810;9.208;2022-08-25T10:14:56;98704.06;;;27.23;58.19
7888;BME280;3989;48.810;9.208;2022-08-25T10:17:25;98687.69;;;27.42;58.19
7888;BME280;3989;48.810;9.208;2022-08-25T10:19:54;98643.88;;;27.37;56.19
7888;BME280;3989;48.810;9.208;2022-08-25T10:22:39;98633.78;;;27.61;53.81
7888;BME280;3989;48.810;9.208;2022-08-25T10:25:08;98655.34;;;27.91;53.99
7888;BME280;3989;48.810;9.208;2022-08-25T10:27:41;98686.09;;;28.31;53.82
7888;BME280;3989;48.810;9.208;2022-08-25T10:30:16;98668.16;;;28.38;51.38
7888;BME280;3989;48.810;9.208;2022-08-25T10:32:57;98679.63;;;28.22;51.91
7888;BME280;3989;48.810;9.208;2022-08-25T10:35:34;98680.97;;;27.82;53.77
7888;BME280;3989;48.810;9.208;2022-08-25T10:38:15;98595.66;;;27.12;56.04
7888;BME280;3989;48.810;9.208;2022-08-25T10:40:52;98589.38;;;27.35;53.89
7888;BME280;3989;48.810;9.208;2022-08-25T10:43:28;98620.41;;;27.78;53.97
7888;BME280;3989;48.810;9.208;2022-08-25T10:46:04;98596.03;;;27.53;53.64
7888;BME280;3989;48.810;9.208;2022-08-25T10:48:47;98669.44;;;28.03;54.46
7888;BME280;3989;48.810;9.208;2022-08-25T10:54:31;98658.28;;;28.19;52.54
7888;BME280;3989;48.810;9.208;2022-08-25T10:57:08;98640.75;;;28.14;51.65
7888;BME280;3989;48.810;9.208;2022-08-25T11:00:05;98642.28;;;28.02;52.02
7888;BME280;3989;48.810;9.208;2022-08-25T11:05:28;98650.41;;;28.68;49.81
7888;BME280;3989;48.810;9.208;2022-08-25T11:08:03;98626.00;;;28.66;48.71
7888;BME280;3989;48.810;9.208;2022-08-25T11:10:37;98604.84;;;28.48;47.65
7888;BME280;3989;48.810;9.208;2022-08-25T11:13:10;98625.09;;;28.71;48.08
7888;BME280;3989;48.810;9.208;2022-08-25T11:15:49;98619.44;;;28.81;47.45
7888;BME280;3989;48.810;9.208;2022-08-25T11:18:19;98596.63;;;28.48;47.95
7888;BME280;3989;48.810;9.208;2022-08-25T11:20:57;98616.47;;;28.27;48.52
7888;BME280;3989;48.810;9.208;2022-08-25T11:23:29;98622.47;;;28.29;48.88
7888;BME280;3989;48.810;9.208;2022-08-25T11:25:59;98631.19;;;28.31;48.37
7888;BME280;3989;48.810;9.208;2022-08-25T11:28:32;98632.63;;;28.28;48.30
7888;BME280;3989;48.810;9.208;2022-08-25T11:31:02;98596.38;;;28.12;48.32
7888;BME280;3989;48.810;9.208;2022-08-25T11:33:31;98620.44;;;28.34;47.67
7888;BME280;3989;48.810;9.208;2022-08-25T11:36:00;98619.84;;;28.37;48.00
7888;BME280;3989;48.810;9.208;2022-08-25T11:38:38;98591.72;;;28.45;47.27
7888;BME280;3989;48.810;9.208;2022-08-25T11:41:18;98590.84;;;28.69;47.09
7888;BME280;3989;48.810;9.208;2022-08-25T11:44:13;98556.69;;;28.88;44.65
7888;BME280;3989;48.810;9.208;2022-08-25T11:46:51;98574.25;;;29.33;43.14
7888;BME280;3989;48.810;9.208;2022-08-25T11:49:41;98592.94;;;29.99;41.48
7888;BME280;3989;48.810;9.208;2022-08-25T11:52:47;98610.72;;;30.51;40.65
7888;BME280;3989;48.810;9.208;2022-08-25T11:55:20;98612.84;;;30.77;40.43
7888;BME280;3989;48.810;9.208;2022-08-25T11:57:50;98580.16;;;30.39;40.63
7888;BME280;3989;48.810;9.208;2022-08-25T12:00:36;98605.94;;;30.21;41.48
7888;BME280;3989;48.810;9.208;2022-08-25T12:06:16;98576.34;;;29.91;41.38
7888;BME280;3989;48.810;9.208;2022-08-25T12:08:50;98588.63;;;30.07;40.99
7888;BME280;3989;48.810;9.208;2022-08-25T12:11:49;98596.84;;;30.20;40.97
7888;BME280;3989;48.810;9.208;2022-08-25T12:14:37;98541.47;;;30.22;40.44
7888;BME280;3989;48.810;9.208;2022-08-25T12:17:17;98589.38;;;30.79;40.38
7888;BME280;3989;48.810;9.208;2022-08-25T12:19:51;98556.78;;;31.03;39.17
7888;BME280;3989;48.810;9.208;2022-08-25T12:22:52;98588.75;;;31.44;38.31
7888;BME280;3989;48.810;9.208;2022-08-25T12:28:39;98569.41;;;32.09;38.22
7888;BME280;3989;48.810;9.208;2022-08-25T12:31:16;98516.94;;;32.00;37.73
7888;BME280;3989;48.810;9.208;2022-08-25T12:33:55;98578.38;;;32.40;37.55
7888;BME280;3989;48.810;9.208;2022-08-25T12:36:28;98585.69;;;32.28;37.50
7888;BME280;3989;48.810;9.208;2022-08-25T12:39:09;98425.84;;;31.23;37.11
7888;BME280;3989;48.810;9.208;2022-08-25T12:41:57;98492.81;;;31.23;37.48
7888;BME280;3989;48.810;9.208;2022-08-25T12:44:46;98366.94;;;29.92;38.17
7888;BME280;3989;48.810;9.208;2022-08-25T12:47:28;98490.59;;;30.64;39.14
7888;BME280;3989;48.810;9.208;2022-08-25T12:50:24;98490.59;;;30.95;37.60
7888;BME280;3989;48.810;9.208;2022-08-25T12:52:52;98355.72;;;30.42;36.80
7888;BME280;3989;48.810;9.208;2022-08-25T12:55:25;98372.84;;;30.69;36.42
7888;BME280;3989;48.810;9.208;2022-08-25T12:57:53;98448.53;;;31.11;36.24
7888;BME280;3989;48.810;9.208;2022-08-25T13:00:26;98350.81;;;30.39;36.44
7888;BME280;3989;48.810;9.208;2022-08-25T13:03:19;98374.91;;;30.55;36.75
7888;BME280;3989;48.810;9.208;2022-08-25T13:06:08;98567.31;;;32.32;36.24
7888;BME280;3989;48.810;9.208;2022-08-25T13:08:57;98406.75;;;31.69;36.29
7888;BME280;3989;48.810;9.208;2022-08-25T13:11:36;98359.41;;;31.50;35.95
7888;BME280;3989;48.810;9.208;2022-08-25T13:14:15;98424.13;;;31.61;36.03
7888;BME280;3989;48.810;9.208;2022-08-25T13:16:52;98358.53;;;31.07;36.65
7888;BME280;3989;48.810;9.208;2022-08-25T13:19:20;98507.06;;;31.82;36.51
7888;BME280;3989;48.810;9.208;2022-08-25T13:21:47;98349.19;;;30.68;36.83
7888;BME280;3989;48.810;9.208;2022-08-25T13:24:18;98395.00;;;30.95;36.34
7888;BME280;3989;48.810;9.208;2022-08-25T13:26:50;98338.91;;;30.43;36.35
7888;BME280;3989;48.810;9.208;2022-08-25T13:29:20;98407.66;;;31.05;36.02
7888;BME280;3989;48.810;9.208;2022-08-25T13:31:53;98321.00;;;30.63;35.84
7888;BME280;3989;48.810;9.208;2022-08-25T13:34:25;98357.28;;;30.65;36.26
7888;BME280;3989;48.810;9.208;2022-08-25T13:36:52;98477.25;;;31.28;36.83
7888;BME280;3989;48.810;9.208;2022-08-25T13:39:37;98469.31;;;31.26;36.74
7888;BME280;3989;48.810;9.208;2022-08-25T13:42:13;98450.31;;;31.24;37.38
7888;BME280;3989;48.810;9.208;2022-08-25T13:44:41;98474.56;;;31.62;37.10
7888;BME280;3989;48.810;9.208;2022-08-25T13:47:13;98284.97;;;30.42;37.46